sensor_id;sensor_type;location;lat;lon;timestamp;temperature;humidity
11239;DHT22;5677;48.488;13.436;2023-07-29T00:00:04;20.60;62.50
11239;DHT22;5677;48.488;13.436;2023-07-29T00:02:33;20.60;62.50
11239;DHT22;5677;48.488;13.436;2023-07-29T00:05:00;20.60;62.40
11239;DHT22;5677;48.488;13.436;2023-07-29T00:07:26;20.60;62.40
11239;DHT22;5677;48.488;13.436;2023-07-29T00:09:53;20.60;62.30
11239;DHT22;5677;48.488;13.436;2023-07-29T00:12:20;20.60;62.30
11239;DHT22;5677;48.488;13.436;2023-07-29T00:14:47;20.60;62.30
11239;DHT22;5677;48.488;13.436;2023-07-29T00:17:13;20.60;62.30
11239;DHT22;5677;48.488;13.436;2023-07-29T00:19:41;20.60;62.30
11239;DHT22;5677;48.488;13.436;2023-07-29T00:22:08;20.60;63.00
11239;DHT22;5677;48.488;13.436;2023-07-29T00:24:35;20.60;62.20
11239;DHT22;5677;48.488;13.436;2023-07-29T00:27:02;20.60;62.20
11239;DHT22;5677;48.488;13.436;2023-07-29T00:29:28;20.60;62.20
11239;DHT22;5677;48.488;13.436;2023-07-29T00:31:55;20.60;62.20
11239;DHT22;5677;48.488;13.436;2023-07-29T00:34:22;20.60;62.20
11239;DHT22;5677;48.488;13.436;2023-07-29T00:36:50;20.60;62.20
11239;DHT22;5677;48.488;13.436;2023-07-29T00:39:17;20.60;62.20
11239;DHT22;5677;48.488;13.436;2023-07-29T00:41:44;20.60;62.10
11239;DHT22;5677;48.488;13.436;2023-07-29T00:44:11;20.60;62.20
11239;DHT22;5677;48.488;13.436;2023-07-29T00:46:38;20.60;62.10
11239;DHT22;5677;48.488;13.436;2023-07-29T00:49:06;20.60;62.10
11239;DHT22;5677;48.488;13.436;2023-07-29T00:51:33;20.60;62.10
11239;DHT22;5677;48.488;13.436;2023-07-29T00:54:01;20.60;62.10
11239;DHT22;5677;48.488;13.436;2023-07-29T00:56:28;20.60;62.10
11239;DHT22;5677;48.488;13.436;2023-07-29T00:58:55;20.60;62.10
11239;DHT22;5677;48.488;13.436;2023-07-29T01:01:25;20.50;62.20
11239;DHT22;5677;48.488;13.436;2023-07-29T01:03:52;20.50;62.10
11239;DHT22;5677;48.488;13.436;2023-07-29T01:06:26;20.60;62.20
11239;DHT22;5677;48.488;13.436;2023-07-29T01:08:59;20.50;62.10
11239;DHT22;5677;48.488;13.436;2023-07-29T01:11:35;20.50;62.20
11239;DHT22;5677;48.488;13.436;2023-07-29T01:14:17;20.50;62.20
11239;DHT22;5677;48.488;13.436;2023-07-29T01:16:51;20.60;62.20
11239;DHT22;5677;48.488;13.436;2023-07-29T01:19:32;20.60;62.10
11239;DHT22;5677;48.488;13.436;2023-07-29T01:22:03;20.50;62.10
11239;DHT22;5677;48.488;13.436;2023-07-29T01:24:31;20.60;62.10
11239;DHT22;5677;48.488;13.436;2023-07-29T01:26:58;20.50;62.10
11239;DHT22;5677;48.488;13.436;2023-07-29T01:29:27;20.50;62.10
11239;DHT22;5677;48.488;13.436;2023-07-29T01:31:56;20.50;62.10
11239;DHT22;5677;48.488;13.436;2023-07-29T01:34:29;20.50;62.10
11239;DHT22;5677;48.488;13.436;2023-07-29T01:36:59;20.50;62.10
11239;DHT22;5677;48.488;13.436;2023-07-29T01:39:29;20.50;62.10
11239;DHT22;5677;48.488;13.436;2023-07-29T01:42:00;20.50;62.10
11239;DHT22;5677;48.488;13.436;2023-07-29T01:44:27;20.50;62.10
11239;DHT22;5677;48.488;13.436;2023-07-29T01:46:55;20.50;62.10
11239;DHT22;5677;48.488;13.436;2023-07-29T01:49:22;20.50;62.10
11239;DHT22;5677;48.488;13.436;2023-07-29T01:51:49;20.50;62.00
11239;DHT22;5677;48.488;13.436;2023-07-29T01:54:16;20.50;62.00
11239;DHT22;5677;48.488;13.436;2023-07-29T01:56:42;20.50;62.10
11239;DHT22;5677;48.488;13.436;2023-07-29T01:59:10;20.50;62.10
11239;DHT22;5677;48.488;13.436;2023-07-29T02:01:38;20.50;62.10
11239;DHT22;5677;48.488;13.436;2023-07-29T02:04:05;20.50;62.10
11239;DHT22;5677;48.488;13.436;2023-07-29T02:06:32;20.50;62.10
11239;DHT22;5677;48.488;13.436;2023-07-29T02:08:59;20.50;62.10
11239;DHT22;5677;48.488;13.436;2023-07-29T02:11:26;20.50;62.10
11239;DHT22;5677;48.488;13.436;2023-07-29T02:13:53;20.50;62.10
11239;DHT22;5677;48.488;13.436;2023-07-29T02:16:22;20.50;62.10
11239;DHT22;5677;48.488;13.436;2023-07-29T02:18:49;20.50;62.10
11239;DHT22;5677;48.488;13.436;2023-07-29T02:21:16;20.50;62.00
11239;DHT22;5677;48.488;13.436;2023-07-29T02:23:42;20.50;61.90
11239;DHT22;5677;48.488;13.436;2023-07-29T02:26:09;20.50;62.00
11239;DHT22;5677;48.488;13.436;2023-07-29T02:28:36;20.50;61.90
11239;DHT22;5677;48.488;13.436;2023-07-29T02:31:09;20.50;61.90
11239;DHT22;5677;48.488;13.436;2023-07-29T02:33:38;20.50;61.90
11239;DHT22;5677;48.488;13.436;2023-07-29T02:36:05;20.50;61.90
11239;DHT22;5677;48.488;13.436;2023-07-29T02:38:31;20.50;61.90
11239;DHT22;5677;48.488;13.436;2023-07-29T02:40:58;20.50;61.90
11239;DHT22;5677;48.488;13.436;2023-07-29T02:43:25;20.50;61.90
11239;DHT22;5677;48.488;13.436;2023-07-29T02:45:52;20.50;61.90
11239;DHT22;5677;48.488;13.436;2023-07-29T02:48:18;20.50;61.90
11239;DHT22;5677;48.488;13.436;2023-07-29T02:50:46;20.50;61.80
11239;DHT22;5677;48.488;13.436;2023-07-29T02:53:13;20.50;61.90
11239;DHT22;5677;48.488;13.436;2023-07-29T02:55:40;20.50;61.90
11239;DHT22;5677;48.488;13.436;2023-07-29T02:58:07;20.50;61.90
11239;DHT22;5677;48.488;13.436;2023-07-29T03:00:33;20.50;61.90
11239;DHT22;5677;48.488;13.436;2023-07-29T03:03:01;20.50;61.90
11239;DHT22;5677;48.488;13.436;2023-07-29T03:05:27;20.50;61.90
11239;DHT22;5677;48.488;13.436;2023-07-29T03:07:57;20.50;61.90
11239;DHT22;5677;48.488;13.436;2023-07-29T03:10:24;20.50;61.80
11239;DHT22;5677;48.488;13.436;2023-07-29T03:12:50;20.50;61.80
11239;DHT22;5677;48.488;13.436;2023-07-29T03:15:17;20.50;61.80
11239;DHT22;5677;48.488;13.436;2023-07-29T03:17:44;20.50;61.80
11239;DHT22;5677;48.488;13.436;2023-07-29T03:20:11;20.50;61.70
11239;DHT22;5677;48.488;13.436;2023-07-29T03:22:37;20.50;61.80
11239;DHT22;5677;48.488;13.436;2023-07-29T03:25:06;20.40;61.70
11239;DHT22;5677;48.488;13.436;2023-07-29T03:27:33;20.50;61.70
11239;DHT22;5677;48.488;13.436;2023-07-29T03:30:02;20.50;61.70
11239;DHT22;5677;48.488;13.436;2023-07-29T03:32:28;20.50;61.70
11239;DHT22;5677;48.488;13.436;2023-07-29T03:34:55;20.40;61.60
11239;DHT22;5677;48.488;13.436;2023-07-29T03:37:22;20.40;61.60
11239;DHT22;5677;48.488;13.436;2023-07-29T03:39:49;20.50;61.70
11239;DHT22;5677;48.488;13.436;2023-07-29T03:42:18;20.40;61.60
11239;DHT22;5677;48.488;13.436;2023-07-29T03:44:45;20.50;61.70
11239;DHT22;5677;48.488;13.436;2023-07-29T03:47:12;20.50;61.70
11239;DHT22;5677;48.488;13.436;2023-07-29T03:49:39;20.50;61.70
11239;DHT22;5677;48.488;13.436;2023-07-29T03:52:06;20.40;61.60
11239;DHT22;5677;48.488;13.436;2023-07-29T03:54:33;20.50;61.70
11239;DHT22;5677;48.488;13.436;2023-07-29T03:56:59;20.40;61.60
11239;DHT22;5677;48.488;13.436;2023-07-29T03:59:27;20.40;61.60
11239;DHT22;5677;48.488;13.436;2023-07-29T04:01:54;20.50;61.70
11239;DHT22;5677;48.488;13.436;2023-07-29T04:04:21;20.40;61.50
11239;DHT22;5677;48.488;13.436;2023-07-29T04:06:48;20.40;61.50
11239;DHT22;5677;48.488;13.436;2023-07-29T04:09:15;20.50;61.70
11239;DHT22;5677;48.488;13.436;2023-07-29T04:11:41;20.40;61.60
11239;DHT22;5677;48.488;13.436;2023-07-29T04:14:08;20.40;61.60
11239;DHT22;5677;48.488;13.436;2023-07-29T04:16:36;20.40;61.50
11239;DHT22;5677;48.488;13.436;2023-07-29T04:19:03;20.40;61.50
11239;DHT22;5677;48.488;13.436;2023-07-29T04:21:30;20.40;61.40
11239;DHT22;5677;48.488;13.436;2023-07-29T04:23:56;20.40;61.50
11239;DHT22;5677;48.488;13.436;2023-07-29T04:26:23;20.40;61.50
11239;DHT22;5677;48.488;13.436;2023-07-29T04:28:50;20.40;61.50
11239;DHT22;5677;48.488;13.436;2023-07-29T04:31:16;20.40;61.40
11239;DHT22;5677;48.488;13.436;2023-07-29T04:33:44;20.40;61.40
11239;DHT22;5677;48.488;13.436;2023-07-29T04:36:11;20.40;61.40
11239;DHT22;5677;48.488;13.436;2023-07-29T04:38:38;20.40;61.40
11239;DHT22;5677;48.488;13.436;2023-07-29T04:41:05;20.40;61.40
11239;DHT22;5677;48.488;13.436;2023-07-29T04:43:33;20.40;61.40
11239;DHT22;5677;48.488;13.436;2023-07-29T04:45:59;20.40;61.40
11239;DHT22;5677;48.488;13.436;2023-07-29T04:48:26;20.40;61.40
11239;DHT22;5677;48.488;13.436;2023-07-29T04:50:54;20.40;61.40
11239;DHT22;5677;48.488;13.436;2023-07-29T04:53:21;20.40;61.40
11239;DHT22;5677;48.488;13.436;2023-07-29T04:55:48;20.40;61.40
11239;DHT22;5677;48.488;13.436;2023-07-29T04:58:14;20.40;61.40
11239;DHT22;5677;48.488;13.436;2023-07-29T05:00:41;20.40;61.40
11239;DHT22;5677;48.488;13.436;2023-07-29T05:03:08;20.40;61.30
11239;DHT22;5677;48.488;13.436;2023-07-29T05:05:35;20.40;61.20
11239;DHT22;5677;48.488;13.436;2023-07-29T05:08:03;20.40;61.30
11239;DHT22;5677;48.488;13.436;2023-07-29T05:10:30;20.40;61.40
11239;DHT22;5677;48.488;13.436;2023-07-29T05:12:57;20.40;61.40
11239;DHT22;5677;48.488;13.436;2023-07-29T05:15:23;20.40;61.60
11239;DHT22;5677;48.488;13.436;2023-07-29T05:17:50;20.40;61.70
11239;DHT22;5677;48.488;13.436;2023-07-29T05:20:17;20.40;61.70
11239;DHT22;5677;48.488;13.436;2023-07-29T05:22:44;20.50;61.90
11239;DHT22;5677;48.488;13.436;2023-07-29T05:25:12;20.50;61.90
11239;DHT22;5677;48.488;13.436;2023-07-29T05:27:38;20.40;61.80
11239;DHT22;5677;48.488;13.436;2023-07-29T05:30:06;20.50;61.80
11239;DHT22;5677;48.488;13.436;2023-07-29T05:32:33;20.50;62.30
11239;DHT22;5677;48.488;13.436;2023-07-29T05:35:00;20.50;63.40
11239;DHT22;5677;48.488;13.436;2023-07-29T05:37:27;20.50;65.60
11239;DHT22;5677;48.488;13.436;2023-07-29T05:39:53;20.50;67.30
11239;DHT22;5677;48.488;13.436;2023-07-29T05:42:22;20.50;67.20
11239;DHT22;5677;48.488;13.436;2023-07-29T05:44:48;20.50;65.80
11239;DHT22;5677;48.488;13.436;2023-07-29T05:47:15;20.40;66.20
11239;DHT22;5677;48.488;13.436;2023-07-29T05:49:42;20.50;66.10
11239;DHT22;5677;48.488;13.436;2023-07-29T05:52:09;20.40;66.30
11239;DHT22;5677;48.488;13.436;2023-07-29T05:54:35;20.50;66.10
11239;DHT22;5677;48.488;13.436;2023-07-29T05:57:03;20.50;66.40
11239;DHT22;5677;48.488;13.436;2023-07-29T05:59:31;20.50;67.00
11239;DHT22;5677;48.488;13.436;2023-07-29T06:01:57;20.50;67.00
11239;DHT22;5677;48.488;13.436;2023-07-29T06:04:24;20.50;66.90
11239;DHT22;5677;48.488;13.436;2023-07-29T06:06:51;20.60;66.60
11239;DHT22;5677;48.488;13.436;2023-07-29T06:09:18;20.50;66.10
11239;DHT22;5677;48.488;13.436;2023-07-29T06:11:44;20.60;65.70
11239;DHT22;5677;48.488;13.436;2023-07-29T06:14:11;20.60;65.30
11239;DHT22;5677;48.488;13.436;2023-07-29T06:16:41;20.60;64.80
11239;DHT22;5677;48.488;13.436;2023-07-29T06:19:08;20.60;64.60
11239;DHT22;5677;48.488;13.436;2023-07-29T06:21:35;20.60;64.90
11239;DHT22;5677;48.488;13.436;2023-07-29T06:24:02;20.70;64.80
11239;DHT22;5677;48.488;13.436;2023-07-29T06:26:29;20.70;65.10
11239;DHT22;5677;48.488;13.436;2023-07-29T06:28:55;20.70;65.30
11239;DHT22;5677;48.488;13.436;2023-07-29T06:31:22;20.80;65.30
11239;DHT22;5677;48.488;13.436;2023-07-29T06:33:50;20.70;65.10
11239;DHT22;5677;48.488;13.436;2023-07-29T06:36:17;20.70;65.30
11239;DHT22;5677;48.488;13.436;2023-07-29T06:38:44;20.80;65.30
11239;DHT22;5677;48.488;13.436;2023-07-29T06:41:11;20.80;66.00
11239;DHT22;5677;48.488;13.436;2023-07-29T06:43:37;20.80;67.60
11239;DHT22;5677;48.488;13.436;2023-07-29T06:46:04;20.80;66.40
11239;DHT22;5677;48.488;13.436;2023-07-29T06:48:31;20.90;67.10
11239;DHT22;5677;48.488;13.436;2023-07-29T06:50:59;20.90;67.10
11239;DHT22;5677;48.488;13.436;2023-07-29T06:53:27;20.90;66.90
11239;DHT22;5677;48.488;13.436;2023-07-29T06:55:54;20.90;66.50
11239;DHT22;5677;48.488;13.436;2023-07-29T06:58:21;21.00;65.80
11239;DHT22;5677;48.488;13.436;2023-07-29T07:00:48;21.00;65.20
11239;DHT22;5677;48.488;13.436;2023-07-29T07:03:14;21.00;64.90
11239;DHT22;5677;48.488;13.436;2023-07-29T07:05:41;21.00;65.00
11239;DHT22;5677;48.488;13.436;2023-07-29T07:08:09;21.00;65.30
11239;DHT22;5677;48.488;13.436;2023-07-29T07:10:36;20.90;65.20
11239;DHT22;5677;48.488;13.436;2023-07-29T07:13:03;20.90;64.80
11239;DHT22;5677;48.488;13.436;2023-07-29T07:15:30;21.00;64.50
11239;DHT22;5677;48.488;13.436;2023-07-29T07:17:57;20.90;64.10
11239;DHT22;5677;48.488;13.436;2023-07-29T07:20:24;20.90;63.80
11239;DHT22;5677;48.488;13.436;2023-07-29T07:22:50;21.00;63.50
11239;DHT22;5677;48.488;13.436;2023-07-29T07:25:19;21.00;64.10
11239;DHT22;5677;48.488;13.436;2023-07-29T07:27:45;21.00;63.00
11239;DHT22;5677;48.488;13.436;2023-07-29T07:30:12;21.00;62.90
11239;DHT22;5677;48.488;13.436;2023-07-29T07:32:39;21.00;62.80
11239;DHT22;5677;48.488;13.436;2023-07-29T07:35:06;21.00;62.50
11239;DHT22;5677;48.488;13.436;2023-07-29T07:37:33;21.10;62.80
11239;DHT22;5677;48.488;13.436;2023-07-29T07:39:59;21.10;63.50
11239;DHT22;5677;48.488;13.436;2023-07-29T07:42:27;21.10;63.60
11239;DHT22;5677;48.488;13.436;2023-07-29T07:44:54;21.10;63.70
11239;DHT22;5677;48.488;13.436;2023-07-29T07:47:21;21.10;64.30
11239;DHT22;5677;48.488;13.436;2023-07-29T07:49:48;21.10;63.10
11239;DHT22;5677;48.488;13.436;2023-07-29T07:52:15;21.10;63.20
11239;DHT22;5677;48.488;13.436;2023-07-29T07:54:42;21.10;62.80
11239;DHT22;5677;48.488;13.436;2023-07-29T07:57:09;21.10;62.60
11239;DHT22;5677;48.488;13.436;2023-07-29T07:59:37;21.20;62.40
11239;DHT22;5677;48.488;13.436;2023-07-29T08:05:25;21.20;61.90
11239;DHT22;5677;48.488;13.436;2023-07-29T08:07:52;21.20;61.70
11239;DHT22;5677;48.488;13.436;2023-07-29T08:10:19;21.20;61.60
11239;DHT22;5677;48.488;13.436;2023-07-29T08:12:46;21.20;61.40
11239;DHT22;5677;48.488;13.436;2023-07-29T08:15:14;21.20;61.40
11239;DHT22;5677;48.488;13.436;2023-07-29T08:17:41;21.20;61.60
11239;DHT22;5677;48.488;13.436;2023-07-29T08:20:08;21.20;61.50
11239;DHT22;5677;48.488;13.436;2023-07-29T08:22:35;21.20;61.50
11239;DHT22;5677;48.488;13.436;2023-07-29T08:25:01;21.20;61.70
11239;DHT22;5677;48.488;13.436;2023-07-29T08:27:29;21.20;61.60
11239;DHT22;5677;48.488;13.436;2023-07-29T08:29:56;21.30;61.70
11239;DHT22;5677;48.488;13.436;2023-07-29T08:32:24;21.30;61.80
11239;DHT22;5677;48.488;13.436;2023-07-29T08:34:53;21.30;61.80
11239;DHT22;5677;48.488;13.436;2023-07-29T08:37:20;21.30;61.70
11239;DHT22;5677;48.488;13.436;2023-07-29T08:39:46;21.30;61.70
11239;DHT22;5677;48.488;13.436;2023-07-29T08:42:14;21.30;61.80
11239;DHT22;5677;48.488;13.436;2023-07-29T08:44:43;21.30;61.90
11239;DHT22;5677;48.488;13.436;2023-07-29T08:47:11;21.40;62.00
11239;DHT22;5677;48.488;13.436;2023-07-29T08:49:40;21.30;62.10
11239;DHT22;5677;48.488;13.436;2023-07-29T08:52:07;21.30;62.10
11239;DHT22;5677;48.488;13.436;2023-07-29T08:54:36;21.30;62.30
11239;DHT22;5677;48.488;13.436;2023-07-29T08:57:03;21.40;62.30
11239;DHT22;5677;48.488;13.436;2023-07-29T08:59:30;21.30;62.40
11239;DHT22;5677;48.488;13.436;2023-07-29T09:01:57;21.30;62.60
11239;DHT22;5677;48.488;13.436;2023-07-29T09:04:24;21.30;63.60
11239;DHT22;5677;48.488;13.436;2023-07-29T09:06:54;21.30;63.50
11239;DHT22;5677;48.488;13.436;2023-07-29T09:09:22;21.30;63.70
11239;DHT22;5677;48.488;13.436;2023-07-29T09:11:49;21.20;63.70
11239;DHT22;5677;48.488;13.436;2023-07-29T09:14:15;21.20;64.40
11239;DHT22;5677;48.488;13.436;2023-07-29T09:16:43;21.20;65.90
11239;DHT22;5677;48.488;13.436;2023-07-29T09:19:10;21.20;67.60
11239;DHT22;5677;48.488;13.436;2023-07-29T09:21:39;21.20;69.20
11239;DHT22;5677;48.488;13.436;2023-07-29T09:24:07;21.20;70.00
11239;DHT22;5677;48.488;13.436;2023-07-29T09:26:35;21.20;70.10
11239;DHT22;5677;48.488;13.436;2023-07-29T09:29:02;21.20;69.80
11239;DHT22;5677;48.488;13.436;2023-07-29T09:31:29;21.20;69.60
11239;DHT22;5677;48.488;13.436;2023-07-29T09:33:57;21.20;70.10
11239;DHT22;5677;48.488;13.436;2023-07-29T09:36:25;21.10;70.30
11239;DHT22;5677;48.488;13.436;2023-07-29T09:38:53;21.10;70.10
11239;DHT22;5677;48.488;13.436;2023-07-29T09:41:24;21.10;70.10
11239;DHT22;5677;48.488;13.436;2023-07-29T09:43:55;21.10;70.40
11239;DHT22;5677;48.488;13.436;2023-07-29T09:46:23;21.10;71.30
11239;DHT22;5677;48.488;13.436;2023-07-29T09:48:53;21.10;72.20
11239;DHT22;5677;48.488;13.436;2023-07-29T09:51:21;21.10;72.30
11239;DHT22;5677;48.488;13.436;2023-07-29T09:53:49;21.10;71.80
11239;DHT22;5677;48.488;13.436;2023-07-29T09:56:16;21.10;71.30
11239;DHT22;5677;48.488;13.436;2023-07-29T09:58:45;21.10;70.10
11239;DHT22;5677;48.488;13.436;2023-07-29T10:01:12;21.10;69.80
11239;DHT22;5677;48.488;13.436;2023-07-29T10:03:39;21.10;70.10
11239;DHT22;5677;48.488;13.436;2023-07-29T10:06:08;21.10;70.60
11239;DHT22;5677;48.488;13.436;2023-07-29T10:08:35;21.10;70.50
11239;DHT22;5677;48.488;13.436;2023-07-29T10:11:05;21.10;70.50
11239;DHT22;5677;48.488;13.436;2023-07-29T10:13:34;21.10;71.20
11239;DHT22;5677;48.488;13.436;2023-07-29T10:16:03;21.10;70.80
11239;DHT22;5677;48.488;13.436;2023-07-29T10:18:31;21.10;70.30
11239;DHT22;5677;48.488;13.436;2023-07-29T10:20:59;21.10;70.00
11239;DHT22;5677;48.488;13.436;2023-07-29T10:23:27;21.10;69.60
11239;DHT22;5677;48.488;13.436;2023-07-29T10:25:57;21.10;69.30
11239;DHT22;5677;48.488;13.436;2023-07-29T10:28:30;21.10;68.90
11239;DHT22;5677;48.488;13.436;2023-07-29T10:30:57;21.10;68.70
11239;DHT22;5677;48.488;13.436;2023-07-29T10:33:26;21.10;68.40
11239;DHT22;5677;48.488;13.436;2023-07-29T10:35:53;21.00;68.20
11239;DHT22;5677;48.488;13.436;2023-07-29T10:38:22;21.10;68.10
11239;DHT22;5677;48.488;13.436;2023-07-29T10:40:51;21.10;67.80
11239;DHT22;5677;48.488;13.436;2023-07-29T10:43:19;21.10;67.60
11239;DHT22;5677;48.488;13.436;2023-07-29T10:45:50;21.10;67.40
11239;DHT22;5677;48.488;13.436;2023-07-29T10:48:42;21.10;67.20
11239;DHT22;5677;48.488;13.436;2023-07-29T10:51:28;21.10;67.00
11239;DHT22;5677;48.488;13.436;2023-07-29T10:53:57;21.10;66.70
11239;DHT22;5677;48.488;13.436;2023-07-29T10:56:28;21.10;66.40
11239;DHT22;5677;48.488;13.436;2023-07-29T10:58:56;21.10;66.20
11239;DHT22;5677;48.488;13.436;2023-07-29T11:01:27;21.10;65.90
11239;DHT22;5677;48.488;13.436;2023-07-29T11:07:21;21.20;64.90
11239;DHT22;5677;48.488;13.436;2023-07-29T11:09:55;21.20;64.60
11239;DHT22;5677;48.488;13.436;2023-07-29T11:12:43;21.20;64.20
11239;DHT22;5677;48.488;13.436;2023-07-29T11:15:16;21.20;64.00
11239;DHT22;5677;48.488;13.436;2023-07-29T11:17:45;21.20;63.90
11239;DHT22;5677;48.488;13.436;2023-07-29T11:20:14;21.20;63.90
11239;DHT22;5677;48.488;13.436;2023-07-29T11:22:41;21.20;63.80
11239;DHT22;5677;48.488;13.436;2023-07-29T11:25:10;21.20;63.60
11239;DHT22;5677;48.488;13.436;2023-07-29T11:27:37;21.20;63.60
11239;DHT22;5677;48.488;13.436;2023-07-29T11:30:06;21.20;63.40
11239;DHT22;5677;48.488;13.436;2023-07-29T11:32:34;21.20;63.30
11239;DHT22;5677;48.488;13.436;2023-07-29T11:35:02;21.20;63.40
11239;DHT22;5677;48.488;13.436;2023-07-29T11:37:32;21.20;63.10
11239;DHT22;5677;48.488;13.436;2023-07-29T11:39:59;21.20;63.00
11239;DHT22;5677;48.488;13.436;2023-07-29T11:42:26;21.20;63.00
11239;DHT22;5677;48.488;13.436;2023-07-29T11:44:53;21.20;63.20
11239;DHT22;5677;48.488;13.436;2023-07-29T11:47:20;21.20;63.80
11239;DHT22;5677;48.488;13.436;2023-07-29T11:49:46;21.20;64.00
11239;DHT22;5677;48.488;13.436;2023-07-29T11:52:13;21.30;64.40
11239;DHT22;5677;48.488;13.436;2023-07-29T11:54:47;21.30;64.80
11239;DHT22;5677;48.488;13.436;2023-07-29T11:57:14;21.30;64.80
11239;DHT22;5677;48.488;13.436;2023-07-29T11:59:42;21.30;64.90
11239;DHT22;5677;48.488;13.436;2023-07-29T12:02:11;21.30;64.90
11239;DHT22;5677;48.488;13.436;2023-07-29T12:04:39;21.30;64.90
11239;DHT22;5677;48.488;13.436;2023-07-29T12:07:06;21.30;64.90
11239;DHT22;5677;48.488;13.436;2023-07-29T12:09:33;21.30;64.90
11239;DHT22;5677;48.488;13.436;2023-07-29T12:12:02;21.30;64.90
11239;DHT22;5677;48.488;13.436;2023-07-29T12:14:29;21.30;64.90
11239;DHT22;5677;48.488;13.436;2023-07-29T12:16:56;21.30;64.90
11239;DHT22;5677;48.488;13.436;2023-07-29T12:19:31;21.30;65.10
11239;DHT22;5677;48.488;13.436;2023-07-29T12:21:58;21.30;65.20
11239;DHT22;5677;48.488;13.436;2023-07-29T12:24:25;21.30;65.10
11239;DHT22;5677;48.488;13.436;2023-07-29T12:26:52;21.30;65.10
11239;DHT22;5677;48.488;13.436;2023-07-29T12:29:20;21.30;64.90
11239;DHT22;5677;48.488;13.436;2023-07-29T12:31:46;21.30;64.80
11239;DHT22;5677;48.488;13.436;2023-07-29T12:34:18;21.30;64.80
11239;DHT22;5677;48.488;13.436;2023-07-29T12:36:46;21.30;64.70
11239;DHT22;5677;48.488;13.436;2023-07-29T12:39:18;21.30;64.70
11239;DHT22;5677;48.488;13.436;2023-07-29T12:41:44;21.30;64.70
11239;DHT22;5677;48.488;13.436;2023-07-29T12:44:11;21.30;64.90
11239;DHT22;5677;48.488;13.436;2023-07-29T12:46:40;21.30;65.40
11239;DHT22;5677;48.488;13.436;2023-07-29T12:49:06;21.30;65.50
11239;DHT22;5677;48.488;13.436;2023-07-29T12:51:33;21.30;65.40
11239;DHT22;5677;48.488;13.436;2023-07-29T12:54:00;21.30;65.40
11239;DHT22;5677;48.488;13.436;2023-07-29T12:56:28;21.30;65.80
11239;DHT22;5677;48.488;13.436;2023-07-29T12:58:55;21.30;66.40
11239;DHT22;5677;48.488;13.436;2023-07-29T13:01:22;21.30;66.40
11239;DHT22;5677;48.488;13.436;2023-07-29T13:03:50;21.30;66.40
11239;DHT22;5677;48.488;13.436;2023-07-29T13:06:17;21.30;66.90
11239;DHT22;5677;48.488;13.436;2023-07-29T13:08:45;21.30;66.70
11239;DHT22;5677;48.488;13.436;2023-07-29T13:11:12;21.30;69.10
11239;DHT22;5677;48.488;13.436;2023-07-29T13:13:39;21.30;71.30
11239;DHT22;5677;48.488;13.436;2023-07-29T13:16:05;21.30;70.70
11239;DHT22;5677;48.488;13.436;2023-07-29T13:18:32;21.30;69.90
11239;DHT22;5677;48.488;13.436;2023-07-29T13:21:01;21.30;68.80
11239;DHT22;5677;48.488;13.436;2023-07-29T13:23:27;21.30;68.30
11239;DHT22;5677;48.488;13.436;2023-07-29T13:25:55;21.30;67.90
11239;DHT22;5677;48.488;13.436;2023-07-29T13:28:21;21.40;67.60
11239;DHT22;5677;48.488;13.436;2023-07-29T13:30:48;21.40;67.40
11239;DHT22;5677;48.488;13.436;2023-07-29T13:33:15;21.40;67.10
11239;DHT22;5677;48.488;13.436;2023-07-29T13:35:42;21.40;67.10
11239;DHT22;5677;48.488;13.436;2023-07-29T13:38:10;21.40;67.00
11239;DHT22;5677;48.488;13.436;2023-07-29T13:40:37;21.40;68.00
11239;DHT22;5677;48.488;13.436;2023-07-29T13:43:04;21.40;67.30
11239;DHT22;5677;48.488;13.436;2023-07-29T13:45:31;21.40;67.10
11239;DHT22;5677;48.488;13.436;2023-07-29T13:47:57;21.50;67.20
11239;DHT22;5677;48.488;13.436;2023-07-29T13:50:24;21.50;67.00
11239;DHT22;5677;48.488;13.436;2023-07-29T13:52:51;21.40;67.10
11239;DHT22;5677;48.488;13.436;2023-07-29T13:55:19;21.50;67.20
11239;DHT22;5677;48.488;13.436;2023-07-29T13:57:46;21.50;67.10
11239;DHT22;5677;48.488;13.436;2023-07-29T14:00:13;21.50;67.00
11239;DHT22;5677;48.488;13.436;2023-07-29T14:02:41;21.50;66.80
11239;DHT22;5677;48.488;13.436;2023-07-29T14:05:08;21.50;66.70
11239;DHT22;5677;48.488;13.436;2023-07-29T14:07:37;21.50;66.80
11239;DHT22;5677;48.488;13.436;2023-07-29T14:10:04;21.50;66.70
11239;DHT22;5677;48.488;13.436;2023-07-29T14:12:33;21.50;66.80
11239;DHT22;5677;48.488;13.436;2023-07-29T14:15:00;21.60;66.60
11239;DHT22;5677;48.488;13.436;2023-07-29T14:17:26;21.60;66.50
11239;DHT22;5677;48.488;13.436;2023-07-29T14:19:53;21.60;67.20
11239;DHT22;5677;48.488;13.436;2023-07-29T14:25:42;21.50;66.20
11239;DHT22;5677;48.488;13.436;2023-07-29T14:28:10;21.60;66.10
11239;DHT22;5677;48.488;13.436;2023-07-29T14:30:37;21.60;66.00
11239;DHT22;5677;48.488;13.436;2023-07-29T14:33:03;21.50;66.00
11239;DHT22;5677;48.488;13.436;2023-07-29T14:35:30;21.50;66.00
11239;DHT22;5677;48.488;13.436;2023-07-29T14:37:57;21.50;65.90
11239;DHT22;5677;48.488;13.436;2023-07-29T14:40:23;21.50;65.70
11239;DHT22;5677;48.488;13.436;2023-07-29T14:42:50;21.50;65.60
11239;DHT22;5677;48.488;13.436;2023-07-29T14:45:18;21.50;65.60
11239;DHT22;5677;48.488;13.436;2023-07-29T14:47:45;21.50;65.50
11239;DHT22;5677;48.488;13.436;2023-07-29T14:50:12;21.60;65.50
11239;DHT22;5677;48.488;13.436;2023-07-29T14:52:39;21.50;65.50
11239;DHT22;5677;48.488;13.436;2023-07-29T14:55:06;21.50;65.40
11239;DHT22;5677;48.488;13.436;2023-07-29T14:57:33;21.50;65.50
11239;DHT22;5677;48.488;13.436;2023-07-29T15:00:00;21.50;65.40
11239;DHT22;5677;48.488;13.436;2023-07-29T15:02:28;21.50;65.30
11239;DHT22;5677;48.488;13.436;2023-07-29T15:04:55;21.50;65.20
11239;DHT22;5677;48.488;13.436;2023-07-29T15:07:21;21.60;65.20
11239;DHT22;5677;48.488;13.436;2023-07-29T15:09:48;21.50;65.10
11239;DHT22;5677;48.488;13.436;2023-07-29T15:12:15;21.50;65.10
11239;DHT22;5677;48.488;13.436;2023-07-29T15:14:42;21.50;65.20
11239;DHT22;5677;48.488;13.436;2023-07-29T15:17:09;21.50;65.40
11239;DHT22;5677;48.488;13.436;2023-07-29T15:19:38;21.50;65.50
11239;DHT22;5677;48.488;13.436;2023-07-29T15:22:05;21.60;65.50
11239;DHT22;5677;48.488;13.436;2023-07-29T15:24:31;21.60;66.50
11239;DHT22;5677;48.488;13.436;2023-07-29T15:26:58;21.60;65.70
11239;DHT22;5677;48.488;13.436;2023-07-29T15:29:25;21.50;65.70
11239;DHT22;5677;48.488;13.436;2023-07-29T15:31:52;21.60;65.60
11239;DHT22;5677;48.488;13.436;2023-07-29T15:34:19;21.50;65.70
11239;DHT22;5677;48.488;13.436;2023-07-29T15:36:48;21.60;65.70
11239;DHT22;5677;48.488;13.436;2023-07-29T15:39:14;21.60;65.80
11239;DHT22;5677;48.488;13.436;2023-07-29T15:41:41;21.50;65.70